Latest Weather Observations for Inverell RS

IDN60801

Issued at 6:32 pm EST Tuesday 3 May 2016 (issued every 30 minutes, with the page automatically refreshed every 10 minutes)

About weather observations | Map of weather stations | Latest weather observations for NSW | Other Formats
Station Details ID: 056018 Name: INVERELL RESEARCH CENTRE Lat: -29.78 Lon: 151.08 Height: 664.0 m
Data from the previous 72 hours. | See also: Recent months at Inverell RS
Date/Time
EST
Temp
°C
App
Temp
°C
Dew
Point
Rel
Hum
%
Delta-T
°C
Wind Press
QNH
hPa
Press
MSL
hPa
Rain
since 9 am
mm
Dir
 
Spd
km/h
Gust
km/h
Spd
kts
Gust
kts
03/06:30pm 14.4 13.4 10.9 79 1.9 WNW 7 13 4 7 1015.8 - 0.0
03/06:00pm 15.4 14.5 10.8 74 2.5 NW 6 9 3 5 1015.4 1014.7 0.0
03/05:30pm 16.0 14.8 10.3 69 3.1 NW 7 13 4 7 1014.8 - 0.0
03/05:00pm 17.1 15.6 10.4 64 3.7 WNW 9 13 5 7 1014.5 - 0.0
03/04:30pm 18.3 16.8 10.6 61 4.3 NW 9 17 5 9 1014.5 - 0.0
03/04:00pm 19.0 17.1 10.6 58 4.7 NW 11 19 6 10 1014.3 - 0.0
03/03:30pm 18.4 15.9 9.6 56 4.8 NW 13 22 7 12 1014.5 - 0.0
03/03:00pm 19.4 16.0 9.1 51 5.6 NW 17 26 9 14 1014.4 1013.6 0.0
03/02:30pm 19.4 17.6 10.9 58 4.8 WNW 11 24 6 13 1014.3 - 0.0
03/02:00pm 19.6 17.2 10.0 54 5.3 W 13 26 7 14 1014.4 - 0.0
03/01:30pm 19.8 17.4 10.1 53 5.4 WNW 13 26 7 14 1014.5 - 0.0
03/01:00pm 19.8 16.9 9.8 52 5.5 WNW 15 28 8 15 1015.0 - 0.0
03/12:30pm 18.1 15.9 10.7 62 4.1 WNW 13 28 7 15 1015.4 - 0.0
03/12:00pm 20.1 19.2 12.5 61 4.4 NW 9 19 5 10 1015.6 1014.9 0.0
03/11:30am 17.5 17.4 12.2 71 3.0 WSW 4 9 2 5 1016.0 - 0.0
03/11:00am 17.4 16.5 12.7 74 2.7 N 9 15 5 8 1016.5 - 0.0
03/10:30am 15.6 16.0 13.7 88 1.1 E 4 9 2 5 1017.0 - 0.0
03/10:00am 14.8 14.7 13.2 90 0.9 N 6 9 3 5 1017.4 - 0.0
03/09:30am 14.7 14.7 13.7 94 0.6 NE 6 9 3 5 1017.5 - 0.0
03/09:00am 14.2 14.2 13.7 97 0.3 ESE 6 7 3 4 1017.5 1016.8 17.6
03/08:30am 13.8 14.9 13.6 99 0.1 CALM 0 0 0 0 1017.4 - 17.6
03/08:00am 13.2 14.1 13.0 99 0.1 CALM 0 0 0 0 1017.1 - 17.6
03/07:30am 12.7 13.5 12.7 100 0.0 CALM 0 0 0 0 1017.0 - 17.6
03/07:00am 12.3 13.0 12.3 100 0.0 CALM 0 0 0 0 1016.9 - 17.6
03/06:30am 12.0 12.6 12.0 100 0.0 CALM 0 0 0 0 1016.7 - 17.4
03/06:00am 12.1 12.8 12.1 100 0.0 CALM 0 0 0 0 1016.4 1015.7 17.4
03/05:30am 12.3 13.0 12.3 100 0.0 CALM 0 0 0 0 1016.1 - 17.4
03/05:00am 12.1 12.8 12.1 100 0.0 CALM 0 0 0 0 1015.8 - 17.4
03/04:30am 12.1 12.8 12.1 100 0.0 CALM 0 0 0 0 1015.6 - 17.4
03/04:00am 11.9 12.4 11.7 99 0.1 CALM 0 0 0 0 1015.4 - 17.4
03/03:30am 12.0 12.6 12.0 100 0.0 CALM 0 0 0 0 1015.4 - 17.4
03/03:00am 12.0 12.6 12.0 100 0.0 CALM 0 0 0 0 1015.5 1014.8 17.2
03/02:30am 10.8 11.1 10.8 100 0.0 CALM 0 7 0 4 1015.6 - 17.2
03/02:00am 12.7 11.8 12.5 99 0.1 NW 9 11 5 6 1015.9 - 17.2
03/01:30am 13.1 12.2 12.7 97 0.2 NW 9 11 5 6 1016.3 - 17.2
03/01:00am 13.2 12.1 13.0 99 0.1 NNW 11 13 6 7 1016.7 - 17.2
03/12:30am 12.5 13.2 12.3 99 0.1 CALM 0 0 0 0 1017.1 - 17.2
03/12:00am 13.2 12.7 12.8 97 0.2 NNW 7 9 4 5 1017.1 1016.5 17.2
 
Date/Time
EST
Temp
°C
App
Temp
°C
Dew
Point
Rel
Hum
%
Delta-T
°C
Wind Press
QNH
hPa
Press
MSL
hPa
Rain
since 9 am
mm
Dir
 
Spd
km/h
Gust
km/h
Spd
kts
Gust
kts
02/11:30pm 13.8 13.1 13.3 97 0.3 NNW 9 11 5 6 1017.4 - 17.2
02/11:00pm 13.9 13.8 13.2 96 0.4 NNW 6 9 3 5 1017.7 - 17.2
02/10:30pm 14.4 14.4 13.7 96 0.4 W 6 9 3 5 1017.8 - 17.2
02/10:00pm 14.6 14.6 14.1 97 0.3 N 7 9 4 5 1017.6 - 17.2
02/09:30pm 14.7 14.3 14.2 97 0.3 NNE 9 11 5 6 1017.7 - 17.2
02/09:00pm 14.7 14.0 14.4 98 0.2 ENE 11 15 6 8 1017.6 1016.9 17.2
02/08:30pm 14.6 13.9 14.4 99 0.1 E 11 13 6 7 1018.0 - 17.2
02/08:00pm 14.5 14.7 14.3 99 0.1 NNW 6 7 3 4 1019.2 - 16.8
02/07:30pm 14.5 15.1 14.2 98 0.2 SSE 4 7 2 4 1019.6 - 16.0
02/07:00pm 14.6 14.2 14.1 97 0.3 SSW 9 13 5 7 1019.9 - 14.0
02/06:30pm 15.0 14.7 14.3 96 0.4 WSW 9 13 5 7 1019.9 - 10.8
02/06:00pm 14.7 14.4 14.4 98 0.2 S 9 11 5 6 1018.8 1018.2 9.2
02/05:30pm 15.0 14.6 14.0 94 0.6 SW 9 15 5 8 1018.8 - 8.4
02/05:00pm 15.2 14.0 14.0 92 0.7 WSW 13 15 7 8 1019.0 - 7.0
02/04:30pm 15.5 14.7 14.1 91 0.8 W 11 17 6 9 1018.7 - 4.8
02/04:00pm 16.4 14.8 14.9 91 0.9 WNW 17 28 9 15 1018.0 - 2.2
02/03:30pm 19.9 16.4 10.8 55 5.1 NW 20 30 11 16 1017.4 - 0.2
02/03:00pm 23.4 21.5 7.4 35 8.6 SSW 7 13 4 7 1016.0 1015.3 0.2
02/02:30pm 24.0 22.9 7.1 33 9.1 NNE 2 6 1 3 1015.6 - 0.2
02/02:00pm 24.3 21.8 6.5 32 9.5 ENE 9 15 5 8 1014.8 - 0.2
02/01:30pm 24.9 23.0 6.6 31 9.8 SW 6 9 3 5 1015.5 - 0.2
02/01:00pm 24.7 22.0 5.7 29 10.0 SSE 9 15 5 8 1016.1 - 0.2
02/12:30pm 24.9 22.3 6.0 29 10.0 SSW 9 19 5 10 1016.6 - 0.2
02/12:00pm 24.4 21.8 6.3 31 9.6 W 9 13 5 7 1017.2 1016.6 0.2
02/11:30am 24.0 21.9 6.5 32 9.3 ESE 7 11 4 6 1017.7 - 0.2
02/11:00am 23.5 21.7 7.8 36 8.5 ESE 7 11 4 6 1018.3 - 0.2
02/10:30am 22.7 21.3 9.6 43 7.3 ENE 7 11 4 6 1019.0 - 0.2
02/10:00am 20.8 19.0 9.6 48 6.2 E 9 11 5 6 1019.6 - 0.0
02/09:30am 19.4 18.4 11.0 58 4.7 E 7 11 4 6 1019.8 - 0.0
02/09:00am 17.9 17.0 11.5 66 3.6 E 7 9 4 5 1020.0 1019.4 1.8
02/08:30am 16.9 17.3 14.7 87 1.3 SE 6 9 3 5 1020.1 - 1.8
02/08:00am 15.7 15.6 13.8 88 1.1 S 7 11 4 6 1020.0 - 1.8
02/07:30am 13.1 12.5 12.2 94 0.5 S 7 9 4 5 1019.9 - 1.8
02/07:00am 11.0 10.0 10.4 96 0.3 SSE 6 11 3 6 1019.5 - 1.8
02/06:30am 10.9 9.3 10.1 95 0.4 S 9 13 5 7 1019.3 - 1.8
02/06:00am 11.1 9.5 10.2 94 0.5 S 9 11 5 6 1019.1 1018.4 1.8
02/05:30am 11.2 9.7 10.4 95 0.4 S 9 13 5 7 1018.7 - 1.8
02/05:00am 11.2 10.8 11.2 100 0.0 S 4 9 2 5 1018.5 - 1.8
02/04:30am 9.7 9.6 9.3 97 0.2 CALM 0 0 0 0 1018.4 - 1.8
02/04:00am 12.0 11.2 11.6 97 0.2 SSW 7 9 4 5 1018.2 - 1.8
02/03:30am 11.8 10.0 10.9 94 0.5 SW 11 15 6 8 1018.1 - 1.8
02/03:00am 12.8 11.7 11.9 94 0.5 S 9 13 5 7 1018.0 1017.3 1.8
02/02:30am 12.9 11.9 12.2 95 0.4 S 9 11 5 6 1018.1 - 1.8
02/02:00am 12.5 11.4 12.1 97 0.2 S 9 11 5 6 1018.4 - 1.8
02/01:30am 13.0 12.5 12.8 99 0.1 S 7 9 4 5 1018.7 - 1.8
02/01:00am 13.3 13.5 13.1 99 0.1 SSE 4 7 2 4 1019.1 - 1.6
02/12:30am 13.4 13.7 13.4 100 0.0 SE 4 7 2 4 1019.2 - 1.6
02/12:00am 13.5 14.5 13.1 97 0.2 CALM 0 0 0 0 1019.5 1018.8 1.6
 
Date/Time
EST
Temp
°C
App
Temp
°C
Dew
Point
Rel
Hum
%
Delta-T
°C
Wind Press
QNH
hPa
Press
MSL
hPa
Rain
since 9 am
mm
Dir
 
Spd
km/h
Gust
km/h
Spd
kts
Gust
kts
01/11:30pm 13.8 13.5 13.4 97 0.2 S 7 7 4 4 1020.0 - 1.6
01/11:00pm 13.9 15.1 13.7 99 0.1 CALM 0 0 0 0 1020.2 - 1.6
01/10:30pm 13.8 14.9 13.6 99 0.1 CALM 0 0 0 0 1020.1 - 1.6
01/10:00pm 14.0 14.4 13.7 98 0.2 WNW 4 7 2 4 1020.2 - 1.6
01/09:30pm 14.9 14.5 14.0 94 0.5 SSW 9 13 5 7 1020.1 - 1.6
01/09:00pm 15.5 15.9 14.7 95 0.5 SW 6 7 3 4 1020.4 1019.8 1.6
01/08:30pm 15.8 16.0 14.8 94 0.6 WSW 7 9 4 5 1020.3 - 1.6
01/08:00pm 15.5 16.3 14.8 96 0.4 SE 4 7 2 4 1020.2 - 1.6
01/07:30pm 15.9 16.7 14.7 93 0.7 WSW 4 9 2 5 1020.1 - 1.6
01/07:00pm 16.1 16.5 14.7 91 0.8 SSW 6 9 3 5 1020.0 - 1.6
01/06:30pm 16.7 17.1 14.7 88 1.2 WNW 6 9 3 5 1020.2 - 1.2
01/06:00pm 16.7 16.9 14.7 88 1.2 WSW 7 13 4 7 1020.4 1019.8 1.2
01/05:30pm 16.7 17.0 15.0 90 1.0 NNW 7 11 4 6 1019.5 - 1.2
01/05:00pm 17.0 18.4 15.3 90 1.0 NE 2 9 1 5 1019.3 - 1.2
01/04:30pm 17.3 18.2 15.1 87 1.3 S 4 7 2 4 1019.7 - 1.0
01/04:00pm 17.2 18.9 15.2 88 1.2 CALM 0 6 0 3 1019.3 - 1.0
01/03:30pm 17.2 17.4 14.7 85 1.5 SSE 7 9 4 5 1019.6 - 1.0
01/03:00pm 17.1 17.2 14.4 84 1.6 S 7 11 4 6 1019.6 1018.9 1.0
01/02:30pm 16.9 16.9 15.2 90 1.0 S 9 13 5 7 1019.2 - 1.0
01/02:00pm 16.8 16.3 15.8 94 0.6 S 13 22 7 12 1019.3 - 1.0
01/01:30pm 20.9 20.8 15.9 73 3.1 WSW 11 19 6 10 1019.0 - 0.2
01/01:00pm 20.8 20.1 17.3 80 2.2 NW 17 32 9 17 1018.8 - 0.2
01/12:30pm 23.7 22.6 15.3 59 5.2 WNW 15 24 8 13 1018.8 - 0.0
01/12:00pm 23.2 21.7 15.2 60 4.9 WNW 17 33 9 18 1019.5 1018.8 0.0
01/11:30am 23.5 21.4 15.2 59 5.1 NW 20 30 11 16 1019.8 - 0.0
01/11:00am 23.5 21.5 15.0 59 5.2 NNW 19 32 10 17 1020.0 - 0.0
01/10:30am 22.8 20.8 14.9 61 4.8 N 19 28 10 15 1020.4 - 0.0
01/10:00am 21.2 20.4 15.1 68 3.7 N 13 24 7 13 1020.7 - 0.0
01/09:30am 20.0 19.2 15.0 73 3.0 NNE 13 17 7 9 1020.9 - 0.0
01/09:00am 19.2 17.7 15.4 78 2.3 N 17 24 9 13 1021.2 1020.6 0.2
01/08:30am 18.5 17.2 14.8 79 2.2 N 15 22 8 12 1021.1 - 0.2
01/08:00am 18.1 17.4 14.4 79 2.2 N 11 15 6 8 1021.1 - 0.2
01/07:30am 17.7 17.2 13.8 78 2.3 N 9 11 5 6 1021.1 - 0.2
01/07:00am 16.5 16.2 13.2 81 1.9 N 7 11 4 6 1020.9 - 0.2
01/06:30am 16.4 16.6 13.1 81 1.9 N 4 7 2 4 1020.6 - 0.2
01/06:00am 15.9 16.7 12.6 81 1.9 CALM 0 0 0 0 1020.4 1019.8 0.2
01/05:30am 15.9 16.7 12.7 81 1.8 CALM 0 0 0 0 1020.0 - 0.2
01/05:00am 15.7 16.1 12.5 81 1.8 N 2 6 1 3 1019.8 - 0.2
01/04:30am 16.9 16.5 13.1 78 2.2 N 7 9 4 5 1019.6 - 0.2
01/04:00am 17.0 17.9 12.8 76 2.4 CALM 0 0 0 0 1019.7 - 0.2
01/03:30am 16.6 17.4 12.6 77 2.3 CALM 0 0 0 0 1019.4 - 0.2
01/03:00am 16.4 17.2 12.5 78 2.2 CALM 0 0 0 0 1019.3 1018.6 0.2
01/02:30am 16.1 15.7 12.4 79 2.1 SE 6 7 3 4 1019.4 - 0.2
01/02:00am 15.9 16.7 12.4 80 2.0 CALM 0 0 0 0 1019.7 - 0.2
01/01:30am 16.6 17.3 12.2 75 2.5 CALM 0 0 0 0 1019.6 - 0.2
01/01:00am 17.0 17.7 12.2 73 2.7 CALM 0 0 0 0 1019.7 - 0.2
01/12:30am 17.9 18.7 12.5 70 3.1 CALM 0 0 0 0 1020.1 - 0.2
01/12:00am 18.1 17.6 12.5 70 3.2 NNE 7 11 4 6 1020.8 1020.1 0.2
 
Date/Time
EST
Temp
°C
App
Temp
°C
Dew
Point
Rel
Hum
%
Delta-T
°C
Wind Press
QNH
hPa
Press
MSL
hPa
Rain
since 9 am
mm
Dir
 
Spd
km/h
Gust
km/h
Spd
kts
Gust
kts
30/11:30pm 19.4 18.9 12.7 65 3.9 SSW 7 11 4 6 1020.7 - 0.2
30/11:00pm 18.4 17.9 12.5 68 3.4 SE 7 9 4 5 1021.0 - 0.2
30/10:30pm 19.3 19.8 12.9 66 3.7 ESE 2 7 1 4 1021.3 - 0.2
30/10:00pm 19.9 20.8 12.8 63 4.1 CALM 0 0 0 0 1021.5 - 0.2
30/09:30pm 19.9 19.6 12.7 63 4.2 S 6 9 3 5 1021.5 - 0.2
30/09:00pm 19.8 20.3 12.9 64 4.0 ENE 2 7 1 4 1021.5 1020.0 0.2
30/08:30pm 20.1 21.0 12.9 63 4.2 CALM 0 0 0 0 1021.3 - 0.2
30/08:00pm 19.8 20.7 12.9 64 4.0 CALM 0 0 0 0 1021.3 - 0.2
30/07:30pm 20.0 20.8 12.6 62 4.3 CALM 0 0 0 0 1020.8 - 0.2
30/07:00pm 20.3 19.9 12.3 60 4.6 WNW 6 7 3 4 1020.6 - 0.2

Other Formats:

Comma delimited format used in spreadsheet applications
http://www.bom.gov.au/fwo/IDN60801/IDN60801.94541.axf

JavaScript Object Notation format (JSON) in row-major order
http://www.bom.gov.au/fwo/IDN60801/IDN60801.94541.json